sensor_id;sensor_type;location;lat;lon;timestamp;pressure;altitude;pressure_sealevel;temperature;humidity
52797;BME280;38666;43.348;12.584;2023-04-25T06:53:09;95022.09;;;11.50;92.52
52797;BME280;38666;43.348;12.584;2023-04-25T06:55:36;95028.25;;;11.13;94.32
52797;BME280;38666;43.348;12.584;2023-04-25T06:58:02;95028.09;;;11.20;94.93
52797;BME280;38666;43.348;12.584;2023-04-25T07:00:28;95036.91;;;11.08;94.46
52797;BME280;38666;43.348;12.584;2023-04-25T07:02:54;95031.50;;;10.84;97.39
52797;BME280;38666;43.348;12.584;2023-04-25T07:05:19;95026.00;;;11.28;94.64
52797;BME280;38666;43.348;12.584;2023-04-25T07:07:45;95019.63;;;11.55;92.39
52797;BME280;38666;43.348;12.584;2023-04-25T07:10:11;95023.13;;;11.56;93.28
52797;BME280;38666;43.348;12.584;2023-04-25T07:12:36;95027.59;;;11.66;90.98
52797;BME280;38666;43.348;12.584;2023-04-25T07:15:02;95022.69;;;11.58;91.85
52797;BME280;38666;43.348;12.584;2023-04-25T07:17:31;95015.63;;;11.60;92.55
52797;BME280;38666;43.348;12.584;2023-04-25T07:19:56;95017.47;;;11.47;92.59
52797;BME280;38666;43.348;12.584;2023-04-25T07:22:22;95017.91;;;11.62;91.31
52797;BME280;38666;43.348;12.584;2023-04-25T07:24:48;95021.84;;;11.98;88.88
52797;BME280;38666;43.348;12.584;2023-04-25T07:27:14;95005.50;;;11.94;88.81
52797;BME280;38666;43.348;12.584;2023-04-25T07:29:39;95009.06;;;11.74;90.03
52797;BME280;38666;43.348;12.584;2023-04-25T07:32:05;95004.59;;;11.64;91.36
52797;BME280;38666;43.348;12.584;2023-04-25T07:34:30;95008.59;;;11.96;89.35
52797;BME280;38666;43.348;12.584;2023-04-25T07:36:57;94990.03;;;11.87;89.60
52797;BME280;38666;43.348;12.584;2023-04-25T07:39:25;94990.91;;;12.01;89.42
52797;BME280;38666;43.348;12.584;2023-04-25T07:41:51;94988.28;;;12.31;88.37
52797;BME280;38666;43.348;12.584;2023-04-25T07:44:16;94990.50;;;12.36;88.54
52797;BME280;38666;43.348;12.584;2023-04-25T07:46:42;94986.59;;;12.83;84.67
52797;BME280;38666;43.348;12.584;2023-04-25T07:49:07;94983.25;;;13.48;79.03
52797;BME280;38666;43.348;12.584;2023-04-25T07:51:33;94999.94;;;12.81;81.71
52797;BME280;38666;43.348;12.584;2023-04-25T07:53:58;94990.69;;;12.92;80.89
52797;BME280;38666;43.348;12.584;2023-04-25T07:56:24;94994.72;;;12.87;80.66
52797;BME280;38666;43.348;12.584;2023-04-25T07:58:50;94988.91;;;12.85;80.97
52797;BME280;38666;43.348;12.584;2023-04-25T08:01:16;94980.53;;;12.75;80.67
52797;BME280;38666;43.348;12.584;2023-04-25T08:03:41;94982.47;;;12.92;79.52
52797;BME280;38666;43.348;12.584;2023-04-25T08:06:07;94988.13;;;12.84;80.20
52797;BME280;38666;43.348;12.584;2023-04-25T08:08:32;94982.00;;;12.80;80.16
52797;BME280;38666;43.348;12.584;2023-04-25T08:10:58;94977.13;;;13.01;78.08
52797;BME280;38666;43.348;12.584;2023-04-25T08:13:23;94972.00;;;13.16;78.25
52797;BME280;38666;43.348;12.584;2023-04-25T08:15:48;94977.78;;;13.05;77.47
52797;BME280;38666;43.348;12.584;2023-04-25T08:18:14;94967.25;;;13.33;72.15
52797;BME280;38666;43.348;12.584;2023-04-25T08:20:39;94982.66;;;13.70;68.59
52797;BME280;38666;43.348;12.584;2023-04-25T08:23:05;94983.97;;;13.52;65.45
52797;BME280;38666;43.348;12.584;2023-04-25T08:25:31;94979.97;;;13.40;65.47
52797;BME280;38666;43.348;12.584;2023-04-25T08:27:56;94981.59;;;13.38;65.55
52797;BME280;38666;43.348;12.584;2023-04-25T08:30:24;94986.50;;;13.59;65.62
52797;BME280;38666;43.348;12.584;2023-04-25T08:32:50;94980.94;;;13.76;65.04
52797;BME280;38666;43.348;12.584;2023-04-25T08:35:15;94986.19;;;13.70;65.91
52797;BME280;38666;43.348;12.584;2023-04-25T08:37:42;94999.94;;;14.10;64.43
52797;BME280;38666;43.348;12.584;2023-04-25T08:40:11;94979.84;;;13.87;63.83
52797;BME280;38666;43.348;12.584;2023-04-25T08:42:37;94984.34;;;14.06;64.23
52797;BME280;38666;43.348;12.584;2023-04-25T08:45:03;94988.81;;;14.26;64.62
52797;BME280;38666;43.348;12.584;2023-04-25T08:47:29;94980.66;;;14.36;64.69
52797;BME280;38666;43.348;12.584;2023-04-25T08:49:55;95001.66;;;14.03;64.69
52797;BME280;38666;43.348;12.584;2023-04-25T08:52:22;94997.50;;;14.12;63.59
52797;BME280;38666;43.348;12.584;2023-04-25T08:54:49;94988.94;;;14.23;63.85
52797;BME280;38666;43.348;12.584;2023-04-25T08:57:17;94994.00;;;14.24;65.08
52797;BME280;38666;43.348;12.584;2023-04-25T08:59:44;94996.19;;;14.03;64.94
52797;BME280;38666;43.348;12.584;2023-04-25T09:02:12;95000.25;;;13.99;66.53
52797;BME280;38666;43.348;12.584;2023-04-25T09:04:43;94988.81;;;13.74;70.49
52797;BME280;38666;43.348;12.584;2023-04-25T09:07:09;94998.16;;;13.77;71.30
52797;BME280;38666;43.348;12.584;2023-04-25T09:09:35;94999.25;;;14.05;69.97
52797;BME280;38666;43.348;12.584;2023-04-25T09:12:01;94998.25;;;14.25;70.14
52797;BME280;38666;43.348;12.584;2023-04-25T09:14:27;94998.06;;;13.93;72.09
52797;BME280;38666;43.348;12.584;2023-04-25T09:19:47;95004.47;;;14.65;68.82
52797;BME280;38666;43.348;12.584;2023-04-25T09:22:13;95002.22;;;14.86;68.76
52797;BME280;38666;43.348;12.584;2023-04-25T09:24:41;95008.13;;;14.36;68.89
52797;BME280;38666;43.348;12.584;2023-04-25T09:27:19;95006.03;;;14.53;68.68
52797;BME280;38666;43.348;12.584;2023-04-25T09:29:45;95004.81;;;14.41;69.19
52797;BME280;38666;43.348;12.584;2023-04-25T09:34:42;95004.59;;;14.97;64.74
52797;BME280;38666;43.348;12.584;2023-04-25T09:37:11;94999.94;;;14.71;64.56
52797;BME280;38666;43.348;12.584;2023-04-25T09:39:38;95013.38;;;15.04;63.53
52797;BME280;38666;43.348;12.584;2023-04-25T09:42:09;95004.81;;;15.25;63.98
52797;BME280;38666;43.348;12.584;2023-04-25T09:44:35;94996.22;;;15.68;62.63
52797;BME280;38666;43.348;12.584;2023-04-25T09:47:01;94998.28;;;15.86;63.65
52797;BME280;38666;43.348;12.584;2023-04-25T09:49:30;95002.25;;;15.53;63.51
52797;BME280;38666;43.348;12.584;2023-04-25T09:51:57;94998.03;;;15.39;58.73
52797;BME280;38666;43.348;12.584;2023-04-25T09:54:24;94986.78;;;15.46;59.83
52797;BME280;38666;43.348;12.584;2023-04-25T09:56:52;94999.34;;;15.57;61.28
52797;BME280;38666;43.348;12.584;2023-04-25T09:59:21;94988.75;;;15.23;61.26
52797;BME280;38666;43.348;12.584;2023-04-25T10:01:48;95000.59;;;15.33;59.19
52797;BME280;38666;43.348;12.584;2023-04-25T10:04:19;95000.94;;;14.64;61.53
52797;BME280;38666;43.348;12.584;2023-04-25T10:06:48;94999.63;;;14.69;62.63
52797;BME280;38666;43.348;12.584;2023-04-25T10:09:15;94996.41;;;14.84;61.70
52797;BME280;38666;43.348;12.584;2023-04-25T10:11:41;94997.06;;;15.10;61.10
52797;BME280;38666;43.348;12.584;2023-04-25T10:14:06;94989.78;;;15.39;59.69
52797;BME280;38666;43.348;12.584;2023-04-25T10:16:32;94991.16;;;15.66;59.04
52797;BME280;38666;43.348;12.584;2023-04-25T10:18:57;94998.84;;;16.03;56.48
52797;BME280;38666;43.348;12.584;2023-04-25T10:21:24;94978.38;;;16.04;56.41
52797;BME280;38666;43.348;12.584;2023-04-25T10:23:52;94982.28;;;16.44;54.27
52797;BME280;38666;43.348;12.584;2023-04-25T10:26:18;94976.78;;;16.44;53.68
52797;BME280;38666;43.348;12.584;2023-04-25T10:29:01;94975.25;;;16.43;55.12
52797;BME280;38666;43.348;12.584;2023-04-25T10:31:27;94973.09;;;16.38;54.73
52797;BME280;38666;43.348;12.584;2023-04-25T10:33:54;94958.13;;;16.48;55.17
52797;BME280;38666;43.348;12.584;2023-04-25T10:36:21;94952.94;;;16.69;54.48
52797;BME280;38666;43.348;12.584;2023-04-25T10:38:48;94945.75;;;16.72;52.04
52797;BME280;38666;43.348;12.584;2023-04-25T10:41:18;94947.84;;;15.89;54.29
52797;BME280;38666;43.348;12.584;2023-04-25T10:43:47;94937.41;;;15.84;53.74
52797;BME280;38666;43.348;12.584;2023-04-25T10:46:13;94928.56;;;16.58;52.58
52797;BME280;38666;43.348;12.584;2023-04-25T10:48:45;94944.50;;;16.73;50.35
52797;BME280;38666;43.348;12.584;2023-04-25T10:51:16;94936.06;;;16.39;52.67
52797;BME280;38666;43.348;12.584;2023-04-25T10:54:05;94946.41;;;16.16;54.09
52797;BME280;38666;43.348;12.584;2023-04-25T10:56:39;94934.22;;;16.36;55.74
52797;BME280;38666;43.348;12.584;2023-04-25T10:59:14;94931.13;;;16.24;55.56
52797;BME280;38666;43.348;12.584;2023-04-25T11:01:44;94931.69;;;16.10;58.39
52797;BME280;38666;43.348;12.584;2023-04-25T11:04:23;94923.97;;;16.83;55.32
52797;BME280;38666;43.348;12.584;2023-04-25T11:09:23;94905.34;;;17.50;50.28
52797;BME280;38666;43.348;12.584;2023-04-25T11:11:56;94893.47;;;18.02;49.89
52797;BME280;38666;43.348;12.584;2023-04-25T11:14:22;94896.88;;;17.97;48.26
52797;BME280;38666;43.348;12.584;2023-04-25T11:16:53;94906.78;;;18.37;48.19
52797;BME280;38666;43.348;12.584;2023-04-25T11:19:20;94904.41;;;18.70;46.52
52797;BME280;38666;43.348;12.584;2023-04-25T11:21:45;94894.94;;;18.12;47.97
52797;BME280;38666;43.348;12.584;2023-04-25T11:24:11;94890.84;;;18.72;45.96
52797;BME280;38666;43.348;12.584;2023-04-25T11:26:36;94882.41;;;18.36;44.64
52797;BME280;38666;43.348;12.584;2023-04-25T11:29:02;94879.81;;;18.32;45.48
52797;BME280;38666;43.348;12.584;2023-04-25T11:31:29;94893.63;;;18.32;45.80
52797;BME280;38666;43.348;12.584;2023-04-25T11:33:57;94875.84;;;19.03;44.33
52797;BME280;38666;43.348;12.584;2023-04-25T11:36:23;94867.84;;;19.35;43.61
52797;BME280;38666;43.348;12.584;2023-04-25T11:41:57;94859.91;;;19.43;42.84
52797;BME280;38666;43.348;12.584;2023-04-25T11:44:26;94852.22;;;20.04;41.17
52797;BME280;38666;43.348;12.584;2023-04-25T11:46:51;94853.50;;;20.24;41.25
52797;BME280;38666;43.348;12.584;2023-04-25T11:49:17;94853.22;;;19.50;41.76
52797;BME280;38666;43.348;12.584;2023-04-25T11:51:45;94855.91;;;19.44;43.42
52797;BME280;38666;43.348;12.584;2023-04-25T11:54:12;94847.28;;;20.08;41.17
52797;BME280;38666;43.348;12.584;2023-04-25T11:56:44;94851.03;;;19.90;42.76
52797;BME280;38666;43.348;12.584;2023-04-25T11:59:11;94841.53;;;21.07;39.22
52797;BME280;38666;43.348;12.584;2023-04-25T12:01:38;94839.34;;;21.49;37.46
52797;BME280;38666;43.348;12.584;2023-04-25T12:04:15;94837.22;;;20.79;39.32
52797;BME280;38666;43.348;12.584;2023-04-25T12:06:42;94841.16;;;22.52;36.11
52797;BME280;38666;43.348;12.584;2023-04-25T12:09:12;94837.47;;;22.11;35.62
52797;BME280;38666;43.348;12.584;2023-04-25T12:11:49;94843.97;;;21.96;36.55
52797;BME280;38666;43.348;12.584;2023-04-25T12:14:29;94845.25;;;21.63;37.86
52797;BME280;38666;43.348;12.584;2023-04-25T12:16:58;94840.78;;;22.15;37.58
52797;BME280;38666;43.348;12.584;2023-04-25T12:19:25;94849.25;;;22.49;35.39
52797;BME280;38666;43.348;12.584;2023-04-25T12:21:51;94851.13;;;22.70;35.98
52797;BME280;38666;43.348;12.584;2023-04-25T12:24:22;94835.66;;;22.69;35.36
52797;BME280;38666;43.348;12.584;2023-04-25T12:29:21;94844.88;;;23.73;33.60
52797;BME280;38666;43.348;12.584;2023-04-25T12:31:48;94843.78;;;24.10;32.64
52797;BME280;38666;43.348;12.584;2023-04-25T12:34:14;94832.47;;;23.28;33.27
52797;BME280;38666;43.348;12.584;2023-04-25T12:36:40;94827.34;;;23.95;33.07
52797;BME280;38666;43.348;12.584;2023-04-25T12:39:05;94833.25;;;23.57;33.32
52797;BME280;38666;43.348;12.584;2023-04-25T12:41:32;94814.75;;;24.48;31.95
52797;BME280;38666;43.348;12.584;2023-04-25T12:43:57;94815.19;;;23.87;33.03
52797;BME280;38666;43.348;12.584;2023-04-25T12:46:23;94819.28;;;24.51;31.77
52797;BME280;38666;43.348;12.584;2023-04-25T12:48:48;94803.53;;;25.32;31.73
52797;BME280;38666;43.348;12.584;2023-04-25T12:51:14;94811.25;;;24.84;31.83
52797;BME280;38666;43.348;12.584;2023-04-25T12:53:40;94799.44;;;25.08;31.20
52797;BME280;38666;43.348;12.584;2023-04-25T12:56:09;94792.66;;;26.09;29.83
52797;BME280;38666;43.348;12.584;2023-04-25T12:58:35;94795.28;;;27.04;29.09
52797;BME280;38666;43.348;12.584;2023-04-25T13:01:00;94786.00;;;26.32;31.00
52797;BME280;38666;43.348;12.584;2023-04-25T13:03:26;94793.22;;;23.60;34.00
52797;BME280;38666;43.348;12.584;2023-04-25T13:05:52;94789.41;;;22.77;35.25
52797;BME280;38666;43.348;12.584;2023-04-25T13:08:21;94791.22;;;21.26;37.58
52797;BME280;38666;43.348;12.584;2023-04-25T13:10:49;94795.34;;;20.51;39.03
52797;BME280;38666;43.348;12.584;2023-04-25T13:13:15;94787.38;;;22.66;36.18
52797;BME280;38666;43.348;12.584;2023-04-25T13:15:41;94796.50;;;23.53;32.80
52797;BME280;38666;43.348;12.584;2023-04-25T13:18:07;94795.25;;;23.31;33.52
52797;BME280;38666;43.348;12.584;2023-04-25T13:20:32;94782.88;;;24.74;31.78
52797;BME280;38666;43.348;12.584;2023-04-25T13:22:58;94788.16;;;23.07;34.28
52797;BME280;38666;43.348;12.584;2023-04-25T13:25:23;94777.47;;;24.45;32.37
52797;BME280;38666;43.348;12.584;2023-04-25T13:27:50;94781.72;;;25.87;30.12
52797;BME280;38666;43.348;12.584;2023-04-25T13:30:15;94781.00;;;25.55;29.65
52797;BME280;38666;43.348;12.584;2023-04-25T13:32:41;94769.69;;;26.17;29.35
52797;BME280;38666;43.348;12.584;2023-04-25T13:35:08;94777.88;;;26.73;28.15
52797;BME280;38666;43.348;12.584;2023-04-25T13:37:35;94768.81;;;26.47;27.48
52797;BME280;38666;43.348;12.584;2023-04-25T13:40:02;94774.41;;;27.65;26.23
52797;BME280;38666;43.348;12.584;2023-04-25T13:42:30;94778.91;;;26.31;27.10
52797;BME280;38666;43.348;12.584;2023-04-25T13:44:56;94781.53;;;23.67;30.92
52797;BME280;38666;43.348;12.584;2023-04-25T13:47:22;94776.94;;;22.55;32.38
52797;BME280;38666;43.348;12.584;2023-04-25T13:49:47;94779.63;;;21.71;33.65
52797;BME280;38666;43.348;12.584;2023-04-25T13:52:13;94774.25;;;21.18;35.01
52797;BME280;38666;43.348;12.584;2023-04-25T13:54:38;94770.63;;;20.05;37.17
52797;BME280;38666;43.348;12.584;2023-04-25T13:57:04;94778.78;;;19.94;38.16
52797;BME280;38666;43.348;12.584;2023-04-25T13:59:30;94776.44;;;19.30;39.28
52797;BME280;38666;43.348;12.584;2023-04-25T14:01:56;94783.31;;;18.89;39.41
52797;BME280;38666;43.348;12.584;2023-04-25T14:04:21;94778.53;;;18.89;39.78
52797;BME280;38666;43.348;12.584;2023-04-25T14:06:47;94777.69;;;18.83;40.71
52797;BME280;38666;43.348;12.584;2023-04-25T14:09:12;94806.97;;;17.71;44.13
52797;BME280;38666;43.348;12.584;2023-04-25T14:11:38;94794.31;;;16.40;47.52
52797;BME280;38666;43.348;12.584;2023-04-25T14:14:04;94826.16;;;16.32;47.60
52797;BME280;38666;43.348;12.584;2023-04-25T14:16:30;94820.53;;;15.66;51.12
52797;BME280;38666;43.348;12.584;2023-04-25T14:18:58;94835.16;;;15.53;52.02
52797;BME280;38666;43.348;12.584;2023-04-25T14:21:24;94849.56;;;14.94;53.71
52797;BME280;38666;43.348;12.584;2023-04-25T14:23:50;94863.63;;;14.96;52.79
52797;BME280;38666;43.348;12.584;2023-04-25T14:26:15;94856.97;;;15.07;52.79
52797;BME280;38666;43.348;12.584;2023-04-25T14:28:41;94860.56;;;14.94;52.48
52797;BME280;38666;43.348;12.584;2023-04-25T14:31:07;94853.81;;;14.28;55.63
52797;BME280;38666;43.348;12.584;2023-04-25T14:33:32;94844.81;;;14.27;55.81
52797;BME280;38666;43.348;12.584;2023-04-25T14:35:58;94850.31;;;14.27;55.44
52797;BME280;38666;43.348;12.584;2023-04-25T14:38:23;94864.19;;;14.11;55.24
52797;BME280;38666;43.348;12.584;2023-04-25T14:40:51;94855.19;;;14.10;55.25
52797;BME280;38666;43.348;12.584;2023-04-25T14:43:17;94871.22;;;14.12;54.94
52797;BME280;38666;43.348;12.584;2023-04-25T14:45:42;94876.84;;;13.95;56.28
52797;BME280;38666;43.348;12.584;2023-04-25T14:48:08;94879.69;;;14.40;55.10
52797;BME280;38666;43.348;12.584;2023-04-25T14:50:33;94884.84;;;14.02;56.35
52797;BME280;38666;43.348;12.584;2023-04-25T14:52:59;94896.31;;;14.23;55.56
52797;BME280;38666;43.348;12.584;2023-04-25T14:55:28;94931.63;;;13.86;56.71
52797;BME280;38666;43.348;12.584;2023-04-25T14:57:54;94921.75;;;13.75;55.66
52797;BME280;38666;43.348;12.584;2023-04-25T15:00:20;94930.88;;;13.59;55.96
52797;BME280;38666;43.348;12.584;2023-04-25T15:02:50;94966.03;;;13.34;58.83
52797;BME280;38666;43.348;12.584;2023-04-25T15:05:16;94961.41;;;13.31;59.96
52797;BME280;38666;43.348;12.584;2023-04-25T15:07:42;94970.66;;;13.51;60.92
52797;BME280;38666;43.348;12.584;2023-04-25T15:10:08;94965.72;;;12.73;65.43
52797;BME280;38666;43.348;12.584;2023-04-25T15:12:39;94967.97;;;12.45;69.70
52797;BME280;38666;43.348;12.584;2023-04-25T15:15:06;94986.09;;;11.88;71.70
52797;BME280;38666;43.348;12.584;2023-04-25T15:17:37;94989.97;;;11.91;74.82
52797;BME280;38666;43.348;12.584;2023-04-25T15:20:03;94997.31;;;11.94;73.23
52797;BME280;38666;43.348;12.584;2023-04-25T15:22:30;95005.59;;;11.90;73.49
52797;BME280;38666;43.348;12.584;2023-04-25T15:24:55;94967.66;;;12.09;72.68
52797;BME280;38666;43.348;12.584;2023-04-25T15:27:22;94951.47;;;12.48;73.56
52797;BME280;38666;43.348;12.584;2023-04-25T15:29:48;94946.78;;;13.77;65.19
52797;BME280;38666;43.348;12.584;2023-04-25T15:32:14;94928.13;;;15.59;56.64
52797;BME280;38666;43.348;12.584;2023-04-25T15:34:39;94921.63;;;15.11;58.27
52797;BME280;38666;43.348;12.584;2023-04-25T15:37:05;94917.34;;;14.88;60.70
52797;BME280;38666;43.348;12.584;2023-04-25T15:39:30;94909.34;;;14.45;62.35
52797;BME280;38666;43.348;12.584;2023-04-25T15:41:56;94916.56;;;14.03;65.13
52797;BME280;38666;43.348;12.584;2023-04-25T15:44:23;94916.72;;;13.87;62.59
52797;BME280;38666;43.348;12.584;2023-04-25T15:46:49;94912.53;;;13.95;62.38
52797;BME280;38666;43.348;12.584;2023-04-25T15:49:14;94892.34;;;13.63;58.76
52797;BME280;38666;43.348;12.584;2023-04-25T15:51:40;94900.88;;;13.39;61.91
52797;BME280;38666;43.348;12.584;2023-04-25T15:54:05;94916.25;;;13.49;60.41
52797;BME280;38666;43.348;12.584;2023-04-25T15:56:31;94910.56;;;13.82;57.55
52797;BME280;38666;43.348;12.584;2023-04-25T15:58:56;94909.88;;;13.26;63.46
52797;BME280;38666;43.348;12.584;2023-04-25T16:01:22;94912.44;;;13.59;61.77
52797;BME280;38666;43.348;12.584;2023-04-25T16:03:50;94920.19;;;13.48;62.92
52797;BME280;38666;43.348;12.584;2023-04-25T16:06:16;94917.81;;;13.76;65.17
52797;BME280;38666;43.348;12.584;2023-04-25T16:08:42;94910.22;;;13.93;61.02
52797;BME280;38666;43.348;12.584;2023-04-25T16:11:07;94908.34;;;14.03;60.17
52797;BME280;38666;43.348;12.584;2023-04-25T16:13:33;94903.31;;;13.89;62.71
52797;BME280;38666;43.348;12.584;2023-04-25T16:16:00;94920.22;;;13.74;63.47
52797;BME280;38666;43.348;12.584;2023-04-25T16:18:26;94926.69;;;13.54;66.67
52797;BME280;38666;43.348;12.584;2023-04-25T16:20:51;94931.00;;;13.12;69.62
52797;BME280;38666;43.348;12.584;2023-04-25T16:23:17;94933.19;;;13.05;71.80
52797;BME280;38666;43.348;12.584;2023-04-25T16:25:43;94946.44;;;13.06;71.06
52797;BME280;38666;43.348;12.584;2023-04-25T16:28:09;94943.94;;;12.82;72.23
52797;BME280;38666;43.348;12.584;2023-04-25T16:30:35;94951.88;;;12.63;74.68
52797;BME280;38666;43.348;12.584;2023-04-25T16:33:01;94951.19;;;12.59;70.28
52797;BME280;38666;43.348;12.584;2023-04-25T16:35:26;94947.47;;;12.53;72.01
52797;BME280;38666;43.348;12.584;2023-04-25T16:37:55;94947.28;;;12.60;73.50
52797;BME280;38666;43.348;12.584;2023-04-25T16:40:20;94949.13;;;12.63;73.09
52797;BME280;38666;43.348;12.584;2023-04-25T16:42:46;94953.28;;;12.55;70.56
52797;BME280;38666;43.348;12.584;2023-04-25T16:45:12;94952.41;;;12.58;71.39
52797;BME280;38666;43.348;12.584;2023-04-25T16:47:38;94963.88;;;12.53;72.23
52797;BME280;38666;43.348;12.584;2023-04-25T16:50:04;94964.84;;;12.93;70.87
52797;BME280;38666;43.348;12.584;2023-04-25T16:52:30;94978.94;;;12.91;68.90
52797;BME280;38666;43.348;12.584;2023-04-25T16:54:56;94979.00;;;12.58;70.65
52797;BME280;38666;43.348;12.584;2023-04-25T16:57:21;94984.09;;;12.43;72.74
52797;BME280;38666;43.348;12.584;2023-04-25T16:59:47;94979.06;;;12.41;73.57
52797;BME280;38666;43.348;12.584;2023-04-25T17:02:13;94972.78;;;12.40;73.07
52797;BME280;38666;43.348;12.584;2023-04-25T17:04:38;94976.22;;;12.28;75.46
52797;BME280;38666;43.348;12.584;2023-04-25T17:07:04;94967.81;;;12.02;77.43
52797;BME280;38666;43.348;12.584;2023-04-25T17:09:30;94980.31;;;12.03;76.90
52797;BME280;38666;43.348;12.584;2023-04-25T17:11:57;94970.72;;;11.95;77.95
52797;BME280;38666;43.348;12.584;2023-04-25T17:14:22;94978.75;;;11.85;79.14
52797;BME280;38666;43.348;12.584;2023-04-25T17:16:48;94984.06;;;11.92;78.65
52797;BME280;38666;43.348;12.584;2023-04-25T17:19:14;94987.22;;;12.08;75.95
52797;BME280;38666;43.348;12.584;2023-04-25T17:21:39;94995.34;;;11.95;74.57
52797;BME280;38666;43.348;12.584;2023-04-25T17:24:06;94996.31;;;11.67;76.12
52797;BME280;38666;43.348;12.584;2023-04-25T17:26:37;95004.38;;;11.75;77.16
52797;BME280;38666;43.348;12.584;2023-04-25T17:29:03;94997.25;;;11.40;78.41
52797;BME280;38666;43.348;12.584;2023-04-25T17:31:29;95014.09;;;11.39;79.47
52797;BME280;38666;43.348;12.584;2023-04-25T17:33:55;95008.69;;;11.35;78.85
52797;BME280;38666;43.348;12.584;2023-04-25T17:36:22;95018.84;;;11.35;79.04
52797;BME280;38666;43.348;12.584;2023-04-25T17:38:48;95021.72;;;11.48;77.13
52797;BME280;38666;43.348;12.584;2023-04-25T17:41:14;95018.59;;;11.29;78.44
52797;BME280;38666;43.348;12.584;2023-04-25T17:43:40;95034.34;;;11.21;78.34
52797;BME280;38666;43.348;12.584;2023-04-25T17:46:05;95034.00;;;11.19;79.68
52797;BME280;38666;43.348;12.584;2023-04-25T17:48:31;95038.19;;;11.24;78.81
52797;BME280;38666;43.348;12.584;2023-04-25T17:50:56;95040.31;;;11.16;78.33
52797;BME280;38666;43.348;12.584;2023-04-25T17:53:23;95051.91;;;11.00;78.39
52797;BME280;38666;43.348;12.584;2023-04-25T17:55:48;95053.63;;;10.90;79.50
52797;BME280;38666;43.348;12.584;2023-04-25T17:58:15;95054.06;;;10.88;79.56
52797;BME280;38666;43.348;12.584;2023-04-25T18:00:40;95056.91;;;10.81;80.00
52797;BME280;38666;43.348;12.584;2023-04-25T18:03:07;95058.41;;;10.86;75.77
52797;BME280;38666;43.348;12.584;2023-04-25T18:05:32;95060.66;;;10.67;76.93
52797;BME280;38666;43.348;12.584;2023-04-25T18:07:58;95057.47;;;10.44;77.79
52797;BME280;38666;43.348;12.584;2023-04-25T18:10:23;95061.63;;;10.29;78.34
52797;BME280;38666;43.348;12.584;2023-04-25T18:12:49;95058.44;;;10.34;77.04
52797;BME280;38666;43.348;12.584;2023-04-25T18:15:15;95064.81;;;10.23;78.66
52797;BME280;38666;43.348;12.584;2023-04-25T18:17:41;95065.75;;;10.13;77.34
52797;BME280;38666;43.348;12.584;2023-04-25T18:20:09;95076.53;;;10.20;79.21
52797;BME280;38666;43.348;12.584;2023-04-25T18:22:39;95086.75;;;10.16;77.86
52797;BME280;38666;43.348;12.584;2023-04-25T18:25:05;95088.28;;;10.17;78.08
52797;BME280;38666;43.348;12.584;2023-04-25T18:27:32;95099.47;;;10.27;77.30
52797;BME280;38666;43.348;12.584;2023-04-25T18:29:58;95093.84;;;10.10;77.09
52797;BME280;38666;43.348;12.584;2023-04-25T18:32:23;95097.94;;;9.94;78.57
52797;BME280;38666;43.348;12.584;2023-04-25T18:34:49;95106.59;;;9.89;78.51
52797;BME280;38666;43.348;12.584;2023-04-25T18:37:15;95114.31;;;9.94;78.43
52797;BME280;38666;43.348;12.584;2023-04-25T18:39:41;95102.88;;;9.75;78.95
52797;BME280;38666;43.348;12.584;2023-04-25T18:42:07;95116.94;;;9.70;80.55
52797;BME280;38666;43.348;12.584;2023-04-25T18:44:33;95123.91;;;9.75;78.87
52797;BME280;38666;43.348;12.584;2023-04-25T18:47:03;95128.66;;;9.67;79.38
52797;BME280;38666;43.348;12.584;2023-04-25T18:49:30;95133.03;;;9.61;79.46
